Altair, Texas
Current Conditions -  °F | °C
As of 9:15 PM on Sunday 21 Dec 2014 (Local Time) from K66R Reporting Station
Overcast Overcast  
Wind Chill: 57°   Ceiling: 2200
Heat Index: 57°   Visibility: 10mi
Dew Point: 54°   Wind: 5mph
Humidity: 89%   Direction: 180°S
Pressure: 29.91"   Gusts: NA
Location:  29.57°N, 96.45°W
Report Text: K66R 220315Z AUTO 18004KT 10SM OVC022 14/12 A2991 RMK AO2 T01400122
Loading
Personal Weather Stations






























Interactive Weather Map New forecast layout! Learn more

10-Day Weather Forecast

Advertisements
Track Severe Weather on mobile